createdAt,value
2023-09-06T00:00:27.133Z,100392.91
2023-09-06T00:01:59.464Z,100400.03
2023-09-06T00:03:32.067Z,100402.72
2023-09-06T00:05:04.736Z,100400.31
2023-09-06T00:06:36.931Z,100402.16
2023-09-06T00:08:16.778Z,100409.03
2023-09-06T00:09:48.990Z,100402.38
2023-09-06T00:11:21.129Z,100408.47
2023-09-06T00:12:53.306Z,100403.38
2023-09-06T00:14:25.419Z,100405.34
2023-09-06T00:15:57.549Z,100402.88
2023-09-06T00:17:29.769Z,100409.09
2023-09-06T00:19:02.110Z,100409.25
2023-09-06T00:20:38.298Z,100411.34
2023-09-06T00:22:13.491Z,100408.78
2023-09-06T00:23:45.627Z,100411.63
2023-09-06T00:25:17.766Z,100406.38
2023-09-06T00:26:51.221Z,100410.78
2023-09-06T00:28:25.822Z,100415.09
2023-09-06T00:29:58.160Z,100411.63
2023-09-06T00:31:30.362Z,100420.34
2023-09-06T00:33:45.963Z,100410.50
2023-09-06T00:35:18.221Z,100411.63
2023-09-06T00:36:50.425Z,100412.53
2023-09-06T00:38:24.102Z,100414.41
2023-09-06T00:39:56.666Z,100413.47
2023-09-06T00:41:31.337Z,100416.88
2023-09-06T00:43:05.111Z,100415.25
2023-09-06T00:44:37.254Z,100412.69
2023-09-06T00:46:09.665Z,100414.53
2023-09-06T00:47:43.651Z,100411.19
2023-09-06T00:49:16.150Z,100411.28
2023-09-06T00:50:53.194Z,100409.50
2023-09-06T00:52:25.587Z,100410.50
2023-09-06T00:54:01.966Z,100420.22
2023-09-06T00:55:39.014Z,100405.38
2023-09-06T00:57:11.256Z,100412.63
2023-09-06T00:58:43.334Z,100411.75
2023-09-06T01:00:23.064Z,100412.69
2023-09-06T01:01:56.676Z,100414.53
2023-09-06T01:03:29.096Z,100406.69
2023-09-06T01:05:01.550Z,100407.69
2023-09-06T01:06:36.002Z,100405.19
2023-09-06T01:08:09.757Z,100402.88
2023-09-06T01:09:42.137Z,100402.16
2023-09-06T01:11:23.173Z,100402.88
2023-09-06T01:12:56.753Z,100402.22
2023-09-06T01:14:29.173Z,100397.81
2023-09-06T01:16:01.781Z,100411.72
2023-09-06T01:17:38.337Z,100397.94
2023-09-06T01:19:13.705Z,100407.59
2023-09-06T01:20:57.924Z,100408.50
2023-09-06T01:22:33.423Z,100400.00
2023-09-06T01:24:07.541Z,100409.56
2023-09-06T01:25:39.884Z,100408.13
2023-09-06T01:27:13.986Z,100397.81
2023-09-06T01:28:46.131Z,100408.41
2023-09-06T01:30:18.296Z,100406.56
2023-09-06T01:31:50.523Z,100412.00
2023-09-06T02:08:37.327Z,100404.25
2023-09-06T02:10:10.406Z,100401.75
2023-09-06T02:11:42.558Z,100407.13
2023-09-06T02:13:14.739Z,100405.41
2023-09-06T02:14:46.919Z,100409.81
2023-09-06T02:16:19.621Z,100404.50
2023-09-06T02:17:51.914Z,100404.63
2023-09-06T02:19:24.112Z,100405.41
2023-09-06T02:20:57.547Z,100401.88
2023-09-06T02:22:29.678Z,100408.03
2023-09-06T02:24:01.774Z,100408.09
2023-09-06T02:25:34.842Z,100409.81
2023-09-06T02:27:07.089Z,100402.84
2023-09-06T02:28:39.258Z,100410.84
2023-09-06T02:30:14.449Z,100413.47
2023-09-06T02:31:47.136Z,100417.72
2023-09-06T02:33:19.605Z,100418.66
2023-09-06T02:34:51.805Z,100414.38
2023-09-06T02:36:23.950Z,100416.97
2023-09-06T02:37:56.070Z,100417.91
2023-09-06T02:39:28.422Z,100413.53
2023-09-06T02:41:00.517Z,100420.53
2023-09-06T02:42:32.672Z,100419.69
2023-09-06T02:44:04.980Z,100421.31
2023-09-06T02:45:40.090Z,100413.53
2023-09-06T02:47:13.329Z,100411.81
2023-09-06T02:48:48.545Z,100412.72
2023-09-06T02:50:25.349Z,100410.16
2023-09-06T02:51:58.440Z,100413.84
2023-09-06T02:53:32.822Z,100409.50
2023-09-06T02:55:06.878Z,100411.22
2023-09-06T02:56:39.259Z,100418.22
2023-09-06T02:58:11.475Z,100412.06
2023-09-06T02:59:44.358Z,100416.34
2023-09-06T03:01:22.351Z,100416.19
2023-09-06T03:03:01.027Z,100409.81
2023-09-06T03:04:39.324Z,100408.97
2023-09-06T03:06:19.401Z,100418.66
2023-09-06T03:07:51.655Z,100424.69
2023-09-06T03:09:30.404Z,100419.50
2023-09-06T03:11:02.667Z,100423.81
2023-09-06T03:12:34.948Z,100422.06
2023-09-06T03:14:07.294Z,100417.72
2023-09-06T03:15:39.614Z,100416.81
2023-09-06T03:17:12.860Z,100421.97
2023-09-06T03:18:44.969Z,100421.13
2023-09-06T03:20:35.638Z,100418.50
2023-09-06T03:22:11.350Z,100420.22
2023-09-06T03:23:46.050Z,100418.50
2023-09-06T03:25:19.303Z,100421.03
2023-09-06T03:26:51.394Z,100429.53
2023-09-06T03:28:23.842Z,100414.06
2023-09-06T03:29:56.238Z,100422.91
2023-09-06T03:31:28.486Z,100421.13
2023-09-06T03:33:00.795Z,100422.91
2023-09-06T03:34:33.036Z,100421.97
2023-09-06T03:36:09.118Z,100423.81
2023-09-06T03:37:42.937Z,100422.97
2023-09-06T03:39:15.748Z,100423.91
2023-09-06T03:40:48.522Z,100424.75
2023-09-06T03:42:22.123Z,100428.22
2023-09-06T03:43:54.811Z,100433.59
2023-09-06T03:45:28.298Z,100443.19
2023-09-06T03:47:00.452Z,100431.56
2023-09-06T03:48:33.208Z,100439.53
2023-09-06T03:50:06.408Z,100442.94
2023-09-06T03:51:38.938Z,100448.13
2023-09-06T03:53:11.206Z,100447.25
2023-09-06T03:54:43.596Z,100444.63
2023-09-06T03:56:15.815Z,100441.25
2023-09-06T03:57:48.592Z,100432.34
2023-09-06T03:59:20.903Z,100445.47
2023-09-06T04:00:53.414Z,100443.81
2023-09-06T04:02:28.931Z,100432.72
2023-09-06T04:04:02.703Z,100444.84
2023-09-06T04:05:38.616Z,100444.66
2023-09-06T04:07:10.816Z,100438.69
2023-09-06T04:08:43.011Z,100450.91
2023-09-06T04:10:18.006Z,100457.09
2023-09-06T04:11:50.128Z,100444.84
2023-09-06T04:13:22.268Z,100453.44
2023-09-06T04:14:54.383Z,100449.16
2023-09-06T04:16:26.849Z,100449.16
2023-09-06T04:17:59.777Z,100448.28
2023-09-06T04:19:33.089Z,100442.00
2023-09-06T04:21:10.254Z,100445.16
2023-09-06T04:22:42.528Z,100438.19
2023-09-06T04:24:14.746Z,100436.38
2023-09-06T04:25:47.146Z,100438.88
2023-09-06T04:27:21.998Z,100434.47
2023-09-06T04:28:54.252Z,100436.13
2023-09-06T04:30:29.941Z,100442.94
2023-09-06T04:32:02.121Z,100438.59
2023-09-06T04:33:34.317Z,100440.31
2023-09-06T04:35:08.507Z,100435.03
2023-09-06T04:36:40.773Z,100429.78
2023-09-06T04:38:14.257Z,100437.56
2023-09-06T04:39:46.376Z,100428.84
2023-09-06T04:41:18.693Z,100431.34
2023-09-06T04:42:50.888Z,100432.22
2023-09-06T04:44:26.164Z,100438.22
2023-09-06T04:45:59.667Z,100432.88
2023-09-06T04:47:32.399Z,100433.66
2023-09-06T04:49:05.040Z,100431.78
2023-09-06T04:50:42.961Z,100427.28
2023-09-06T04:52:15.176Z,100431.72
2023-09-06T04:53:47.331Z,100429.09
2023-09-06T04:55:21.065Z,100433.38
2023-09-06T04:56:55.880Z,100433.31
2023-09-06T04:58:28.367Z,100430.47
2023-09-06T05:00:02.092Z,100437.31
2023-09-06T05:01:34.245Z,100441.56
2023-09-06T05:03:13.043Z,100444.84
2023-09-06T05:04:45.611Z,100442.16
2023-09-06T05:06:19.226Z,100448.13
2023-09-06T05:07:54.238Z,100447.91
2023-09-06T05:09:26.338Z,100449.50
2023-09-06T05:10:58.565Z,100444.19
2023-09-06T05:12:30.965Z,100450.91
2023-09-06T05:14:03.231Z,100450.75
2023-09-06T05:15:37.439Z,100454.00
2023-09-06T05:17:09.836Z,100456.50
2023-09-06T05:18:42.057Z,100454.69
2023-09-06T05:20:34.508Z,100463.00
2023-09-06T05:22:06.743Z,100455.19
2023-09-06T05:23:38.885Z,100452.34
2023-09-06T05:25:11.108Z,100453.91
2023-09-06T05:26:43.310Z,100465.16
2023-09-06T05:28:17.705Z,100461.47
2023-09-06T05:29:51.457Z,100465.59
2023-09-06T05:31:23.758Z,100468.03
2023-09-06T05:33:00.102Z,100459.94
2023-09-06T05:34:32.337Z,100464.09
2023-09-06T05:36:04.761Z,100460.28
2023-09-06T05:37:39.310Z,100460.06
2023-09-06T05:39:11.552Z,100454.69
2023-09-06T05:40:45.047Z,100456.25
2023-09-06T05:42:17.255Z,100451.72
2023-09-06T05:43:49.611Z,100456.59
2023-09-06T05:45:23.082Z,100455.53
2023-09-06T05:46:55.271Z,100457.97
2023-09-06T05:48:27.954Z,100457.97
2023-09-06T05:50:00.336Z,100462.22
2023-09-06T05:51:33.465Z,100454.09
2023-09-06T05:53:05.723Z,100456.66
2023-09-06T05:54:38.843Z,100459.91
2023-09-06T05:56:11.031Z,100459.84
2023-09-06T05:57:43.467Z,100460.63
2023-09-06T05:59:15.909Z,100462.31
2023-09-06T06:00:48.154Z,100461.47
2023-09-06T06:02:20.417Z,100469.34
2023-09-06T06:03:52.727Z,100475.34
2023-09-06T06:05:25.715Z,100475.88
2023-09-06T06:06:57.951Z,100476.66
2023-09-06T06:08:30.357Z,100480.91
2023-09-06T06:10:03.035Z,100484.25
2023-09-06T06:11:35.195Z,100485.03
2023-09-06T06:13:08.820Z,100482.38
2023-09-06T06:14:42.804Z,100489.19
2023-09-06T06:16:16.316Z,100484.13
2023-09-06T06:17:49.548Z,100483.28
2023-09-06T06:19:21.661Z,100481.00
2023-09-06T06:20:54.376Z,100485.47
2023-09-06T06:22:26.603Z,100485.25
2023-09-06T06:23:59.680Z,100477.34
2023-09-06T06:25:31.879Z,100483.47
2023-09-06T06:27:04.407Z,100487.88
2023-09-06T06:28:36.795Z,100493.97
2023-09-06T06:30:09.897Z,100491.13
2023-09-06T06:31:42.344Z,100492.84
2023-09-06T06:34:21.365Z,100494.94
2023-09-06T06:35:53.561Z,100505.28
2023-09-06T06:37:25.795Z,100501.56
2023-09-06T06:38:58.117Z,100492.59
2023-09-06T06:40:31.500Z,100500.28
2023-09-06T06:42:03.463Z,100496.25
2023-09-06T06:43:38.255Z,100506.03
2023-09-06T06:45:14.715Z,100497.81
2023-09-06T06:46:51.542Z,100508.00
2023-09-06T06:48:23.922Z,100508.09
2023-09-06T06:49:56.646Z,100503.63
2023-09-06T06:51:43.283Z,100504.28
2023-09-06T06:53:15.932Z,100502.41
2023-09-06T06:54:48.284Z,100508.47
2023-09-06T06:56:23.565Z,100504.91
2023-09-06T06:57:58.658Z,100511.56
2023-09-06T06:59:30.842Z,100510.63
2023-09-06T07:01:03.207Z,100511.28
2023-09-06T07:02:36.408Z,100519.72
2023-09-06T07:04:08.816Z,100518.72
2023-09-06T07:05:41.047Z,100523.47
2023-09-06T07:07:13.247Z,100528.44
2023-09-06T07:08:45.472Z,100529.06
2023-09-06T07:10:17.963Z,100527.25
2023-09-06T07:11:51.396Z,100521.81
2023-09-06T07:13:23.606Z,100532.13
2023-09-06T07:14:56.664Z,100530.34
2023-09-06T07:16:31.827Z,100523.03
2023-09-06T07:18:08.486Z,100519.22
2023-09-06T07:19:40.659Z,100531.22
2023-09-06T07:21:13.398Z,100523.91
2023-09-06T07:22:45.585Z,100526.28
2023-09-06T07:24:17.893Z,100524.34
2023-09-06T07:25:50.123Z,100519.00
2023-09-06T07:27:22.713Z,100525.81
2023-09-06T07:28:54.866Z,100522.06
2023-09-06T07:30:30.169Z,100514.69
2023-09-06T07:32:02.510Z,100513.84
2023-09-06T07:33:35.268Z,100521.22
2023-09-06T07:35:08.065Z,100505.25
2023-09-06T07:36:40.588Z,100507.69
2023-09-06T07:38:13.031Z,100508.31
2023-09-06T07:39:45.208Z,100509.03
2023-09-06T07:41:18.383Z,100509.81
2023-09-06T07:42:50.835Z,100504.72
2023-09-06T07:44:23.068Z,100503.84
2023-09-06T07:45:55.268Z,100504.44
2023-09-06T07:47:27.861Z,100502.38
2023-09-06T07:49:00.524Z,100503.13
2023-09-06T07:50:32.996Z,100502.97
2023-09-06T07:52:06.707Z,100500.13
2023-09-06T07:53:43.416Z,100495.34
2023-09-06T07:55:15.762Z,100498.00
2023-09-06T07:56:49.150Z,100493.59
2023-09-06T07:58:21.841Z,100495.34
2023-09-06T07:59:54.054Z,100493.22
2023-09-06T08:01:27.012Z,100490.09
2023-09-06T08:02:59.590Z,100491.56
2023-09-06T08:04:32.417Z,100488.56
2023-09-06T08:06:05.882Z,100490.00
2023-09-06T08:07:40.755Z,100488.00
2023-09-06T08:09:12.925Z,100489.81
2023-09-06T08:10:45.411Z,100485.13
2023-09-06T08:12:17.855Z,100483.41
2023-09-06T08:13:50.136Z,100488.53
2023-09-06T08:15:23.610Z,100492.00
2023-09-06T08:16:55.877Z,100490.13
2023-09-06T08:18:30.014Z,100484.53
2023-09-06T08:20:05.567Z,100482.56
2023-09-06T08:21:38.627Z,100484.09
2023-09-06T08:23:10.822Z,100491.44
2023-09-06T08:24:43.085Z,100485.09
2023-09-06T08:26:17.396Z,100482.97
2023-09-06T08:27:52.528Z,100486.06
2023-09-06T08:29:24.775Z,100484.94
2023-09-06T08:30:57.104Z,100477.84
2023-09-06T08:32:29.490Z,100477.56
2023-09-06T08:34:01.949Z,100472.97
2023-09-06T08:37:06.972Z,100476.16
2023-09-06T08:38:40.924Z,100472.50
2023-09-06T08:40:13.454Z,100468.03
2023-09-06T08:41:49.140Z,100471.44
2023-09-06T08:43:21.511Z,100467.19
2023-09-06T08:44:54.022Z,100470.59
2023-09-06T08:46:30.495Z,100471.22
2023-09-06T08:48:02.946Z,100467.75
2023-09-06T08:49:36.884Z,100471.97
2023-09-06T08:51:12.752Z,100476.34
2023-09-06T08:52:46.047Z,100479.53
2023-09-06T08:54:19.119Z,100475.44
2023-09-06T08:55:51.591Z,100477.38
2023-09-06T08:57:24.871Z,100470.06
2023-09-06T08:58:57.287Z,100475.16
2023-09-06T09:00:29.624Z,100475.16
2023-09-06T09:02:01.835Z,100468.16
2023-09-06T09:03:35.368Z,100469.38
2023-09-06T09:05:19.526Z,100468.44
2023-09-06T09:06:54.209Z,100468.34
2023-09-06T09:08:29.416Z,100465.94
2023-09-06T09:10:08.909Z,100464.03
2023-09-06T09:11:51.624Z,100468.09
2023-09-06T09:13:23.895Z,100471.69
2023-09-06T09:14:57.034Z,100476.75
2023-09-06T09:16:31.350Z,100473.72
2023-09-06T09:18:13.873Z,100477.69
2023-09-06T09:19:51.201Z,100468.72
2023-09-06T09:21:23.373Z,100482.78
2023-09-06T09:23:03.397Z,100479.81
2023-09-06T09:24:36.038Z,100468.59
2023-09-06T09:26:10.105Z,100479.72
2023-09-06T09:27:44.590Z,100472.63
2023-09-06T09:29:17.611Z,100470.53
2023-09-06T09:30:50.771Z,100473.81
2023-09-06T09:32:23.517Z,100465.38
2023-09-06T09:33:56.347Z,100465.28
2023-09-06T09:35:28.902Z,100458.59
2023-09-06T09:37:03.152Z,100460.41
2023-09-06T09:38:35.264Z,100457.53
2023-09-06T09:40:21.983Z,100452.13
2023-09-06T09:42:03.524Z,100455.03
2023-09-06T09:43:36.764Z,100451.72
2023-09-06T09:45:11.800Z,100454.50
2023-09-06T09:46:45.062Z,100451.50
2023-09-06T09:48:18.365Z,100456.91
2023-09-06T09:49:50.976Z,100455.63
2023-09-06T09:51:23.665Z,100456.00
2023-09-06T09:52:57.210Z,100460.56
2023-09-06T09:54:35.148Z,100447.63
2023-09-06T09:56:08.913Z,100461.78
2023-09-06T09:57:42.103Z,100453.38
2023-09-06T09:59:17.128Z,100446.44
2023-09-06T10:00:53.651Z,100440.06
2023-09-06T10:02:38.857Z,100444.06
2023-09-06T10:04:14.674Z,100436.59
2023-09-06T10:05:48.772Z,100433.84
2023-09-06T10:07:25.556Z,100434.69
2023-09-06T10:09:10.688Z,100430.63
2023-09-06T10:10:43.009Z,100441.00
2023-09-06T10:12:15.373Z,100432.81
2023-09-06T10:13:49.200Z,100428.25
2023-09-06T10:15:25.209Z,100433.75
2023-09-06T10:16:57.819Z,100427.63
2023-09-06T10:18:30.407Z,100427.72
2023-09-06T10:20:06.535Z,100433.19
2023-09-06T10:21:39.021Z,100431.81
2023-09-06T10:23:11.264Z,100429.66
2023-09-06T10:24:46.385Z,100432.91
2023-09-06T10:26:31.974Z,100430.28
2023-09-06T10:28:05.674Z,100427.41
2023-09-06T10:30:04.071Z,100426.94
2023-09-06T10:36:05.017Z,100420.41
2023-09-06T10:38:19.972Z,100417.03
2023-09-06T10:39:55.678Z,100421.13
2023-09-06T10:41:30.954Z,100419.47
2023-09-06T10:43:03.244Z,100423.44
2023-09-06T10:45:01.849Z,100422.75
2023-09-06T10:46:36.058Z,100418.97
2023-09-06T10:48:11.969Z,100418.84
2023-09-06T10:51:22.650Z,100425.25
2023-09-06T10:53:00.288Z,100421.28
2023-09-06T10:54:39.842Z,100418.13
2023-09-06T10:56:14.106Z,100422.81
2023-09-06T10:57:53.394Z,100419.56
2023-09-06T10:59:25.615Z,100423.44
2023-09-06T11:01:20.131Z,100418.69
2023-09-06T11:03:11.220Z,100421.09
2023-09-06T11:04:44.367Z,100423.28
2023-09-06T11:06:16.609Z,100428.72
2023-09-06T11:07:51.057Z,100416.03
2023-09-06T11:09:24.351Z,100422.78
2023-09-06T11:11:01.431Z,100412.25
2023-09-06T11:12:34.325Z,100401.16
2023-09-06T11:14:06.550Z,100410.22
2023-09-06T11:15:39.694Z,100401.78
2023-09-06T11:17:20.947Z,100404.81
2023-09-06T11:18:53.178Z,100396.50
2023-09-06T11:20:25.439Z,100402.03
2023-09-06T11:22:10.092Z,100396.75
2023-09-06T11:23:47.179Z,100392.75
2023-09-06T11:25:23.959Z,100399.66
2023-09-06T11:26:58.278Z,100388.28
2023-09-06T11:28:32.874Z,100387.91
2023-09-06T11:30:26.763Z,100384.69
2023-09-06T11:32:13.662Z,100389.03
2023-09-06T11:33:46.436Z,100387.22
2023-09-06T11:35:24.321Z,100381.63
2023-09-06T11:36:57.775Z,100388.28
2023-09-06T11:38:32.781Z,100380.31
2023-09-06T11:40:14.682Z,100374.16
2023-09-06T11:41:47.073Z,100376.81
2023-09-06T11:43:24.565Z,100375.59
2023-09-06T11:44:56.861Z,100378.34
2023-09-06T11:46:29.133Z,100374.88
2023-09-06T11:48:07.276Z,100375.34
2023-09-06T11:49:42.039Z,100374.41
2023-09-06T11:51:15.626Z,100360.63
2023-09-06T11:52:57.976Z,100369.69
2023-09-06T11:54:33.423Z,100356.66
2023-09-06T11:56:09.502Z,100367.03
2023-09-06T11:57:44.084Z,100362.66
2023-09-06T11:59:19.374Z,100365.09
2023-09-06T12:00:52.867Z,100350.34
2023-09-06T12:02:29.244Z,100355.19
2023-09-06T12:04:04.361Z,100359.13
2023-09-06T12:05:49.139Z,100355.41
2023-09-06T12:07:25.067Z,100349.44
2023-09-06T12:08:57.433Z,100343.78
2023-09-06T12:11:09.564Z,100347.44
2023-09-06T12:12:43.697Z,100347.78
2023-09-06T12:14:17.533Z,100346.06
2023-09-06T12:15:49.665Z,100340.50
2023-09-06T12:17:22.133Z,100335.31
2023-09-06T12:18:54.468Z,100338.69
2023-09-06T12:20:27.254Z,100340.19
2023-09-06T12:21:59.553Z,100337.03
2023-09-06T12:23:32.783Z,100337.53
2023-09-06T12:25:06.525Z,100341.41
2023-09-06T12:26:38.925Z,100335.84
2023-09-06T12:28:11.199Z,100328.13
2023-09-06T12:29:43.875Z,100337.19
2023-09-06T12:31:17.959Z,100331.75
2023-09-06T12:32:50.665Z,100322.81
2023-09-06T12:34:23.273Z,100326.66
2023-09-06T12:36:09.841Z,100328.44
2023-09-06T12:37:42.272Z,100317.56
2023-09-06T12:39:14.534Z,100316.09
2023-09-06T12:40:48.198Z,100316.91
2023-09-06T12:42:20.390Z,100312.19
2023-09-06T12:43:52.609Z,100307.19
2023-09-06T12:45:29.938Z,100302.72
2023-09-06T12:47:18.162Z,100314.03
2023-09-06T12:48:50.500Z,100305.44
2023-09-06T12:50:23.387Z,100300.31
2023-09-06T12:52:36.505Z,100299.16
2023-09-06T12:54:08.854Z,100307.97
2023-09-06T12:55:41.089Z,100299.28
2023-09-06T12:57:13.282Z,100295.19
2023-09-06T12:58:45.547Z,100288.91
2023-09-06T13:00:18.272Z,100295.06
2023-09-06T13:01:51.320Z,100294.59
2023-09-06T13:03:24.002Z,100293.69
2023-09-06T13:04:56.550Z,100290.84
2023-09-06T13:06:29.003Z,100295.38
2023-09-06T13:08:01.884Z,100288.59
2023-09-06T13:09:34.100Z,100294.59
2023-09-06T13:11:06.606Z,100289.38
2023-09-06T13:12:39.480Z,100283.56
2023-09-06T13:14:11.679Z,100279.78
2023-09-06T13:15:43.948Z,100284.00
2023-09-06T13:17:16.357Z,100272.13
2023-09-06T13:18:48.674Z,100271.63
2023-09-06T13:20:21.093Z,100270.91
2023-09-06T13:21:53.581Z,100271.41
2023-09-06T13:23:26.007Z,100273.50
2023-09-06T13:24:58.242Z,100278.63
2023-09-06T13:26:30.389Z,100267.66
2023-09-06T13:28:02.680Z,100260.19
2023-09-06T13:29:35.977Z,100264.50
2023-09-06T13:31:09.516Z,100259.78
2023-09-06T13:32:41.890Z,100256.75
2023-09-06T13:34:14.130Z,100252.03
2023-09-06T13:35:46.284Z,100253.69
2023-09-06T13:37:18.700Z,100259.72
2023-09-06T13:38:50.981Z,100248.59
2023-09-06T13:41:58.054Z,100251.84
2023-09-06T13:43:30.586Z,100242.50
2023-09-06T13:45:03.400Z,100243.59
2023-09-06T14:00:47.088Z,100221.75
2023-09-06T14:02:19.511Z,100228.38
2023-09-06T14:03:52.260Z,100224.72
2023-09-06T14:05:24.505Z,100229.88
2023-09-06T14:06:56.756Z,100223.50
2023-09-06T14:08:29.465Z,100222.50
2023-09-06T14:10:01.928Z,100222.38
2023-09-06T14:11:34.088Z,100216.56
2023-09-06T14:13:06.368Z,100207.56
2023-09-06T14:14:38.550Z,100202.66
2023-09-06T14:16:11.134Z,100213.41
2023-09-06T14:17:43.509Z,100212.06
2023-09-06T14:19:15.898Z,100210.25
2023-09-06T14:20:48.806Z,100208.19
2023-09-06T14:22:21.069Z,100213.50
2023-09-06T14:23:54.365Z,100212.66
2023-09-06T14:25:26.675Z,100207.94
2023-09-06T14:26:58.941Z,100206.63
2023-09-06T14:28:32.260Z,100205.06
2023-09-06T14:30:06.417Z,100207.38
2023-09-06T14:31:38.740Z,100206.09
2023-09-06T14:33:11.401Z,100208.75
2023-09-06T14:34:43.699Z,100204.00
2023-09-06T14:36:15.903Z,100205.44
2023-09-06T14:37:48.146Z,100203.66
2023-09-06T14:39:20.349Z,100198.06
2023-09-06T14:40:52.690Z,100199.03
2023-09-06T14:42:24.996Z,100200.84
2023-09-06T14:44:00.216Z,100191.91
2023-09-06T14:45:32.540Z,100188.53
2023-09-06T14:47:05.027Z,100192.50
2023-09-06T14:48:37.604Z,100190.66
2023-09-06T14:50:10.407Z,100192.72
2023-09-06T14:51:42.556Z,100184.16
2023-09-06T14:53:14.751Z,100190.34
2023-09-06T14:54:46.947Z,100195.38
2023-09-06T14:56:19.853Z,100190.06
2023-09-06T14:57:52.110Z,100182.94
2023-09-06T14:59:24.363Z,100186.31
2023-09-06T15:00:56.946Z,100182.94
2023-09-06T15:32:22.662Z,100191.47
2023-09-06T15:33:55.462Z,100190.75
2023-09-06T15:35:28.998Z,100193.28
2023-09-06T15:37:01.199Z,100187.50
2023-09-06T15:38:33.436Z,100189.41
2023-09-06T15:40:07.241Z,100191.34
2023-09-06T15:43:12.147Z,100188.72
2023-09-06T15:44:45.064Z,100182.94
2023-09-06T15:46:17.295Z,100191.16
2023-09-06T15:47:49.863Z,100192.50
2023-09-06T15:53:41.991Z,100191.94
2023-09-06T15:55:14.708Z,100189.16
2023-09-06T15:57:12.172Z,100188.59
2023-09-06T15:58:44.307Z,100184.13
2023-09-06T16:00:56.448Z,100188.81
2023-09-06T16:16:53.406Z,100203.50
2023-09-06T16:18:25.679Z,100194.31
2023-09-06T16:19:57.967Z,100196.22
2023-09-06T16:21:31.411Z,100200.09
2023-09-06T16:23:10.900Z,100199.31
2023-09-06T16:24:43.472Z,100198.47
2023-09-06T16:31:02.824Z,100204.03
2023-09-06T16:32:35.712Z,100202.59
2023-09-06T16:34:07.972Z,100206.88
2023-09-06T16:35:40.425Z,100205.50
2023-09-06T16:42:09.771Z,100214.28
2023-09-06T16:46:52.760Z,100224.78
2023-09-06T16:48:27.556Z,100221.84
2023-09-06T16:50:00.030Z,100228.75
2023-09-06T16:51:33.750Z,100231.72
2023-09-06T16:53:07.839Z,100230.25
2023-09-06T16:54:40.049Z,100231.31
2023-09-06T16:56:12.193Z,100231.56
2023-09-06T16:57:44.535Z,100237.16
2023-09-06T16:59:17.162Z,100237.28
2023-09-06T17:00:50.416Z,100240.34
2023-09-06T17:09:17.114Z,100252.69
2023-09-06T17:10:49.423Z,100254.72
2023-09-06T17:12:22.980Z,100250.25
2023-09-06T17:13:55.233Z,100255.88
2023-09-06T17:29:38.799Z,100261.41
2023-09-06T17:31:10.972Z,100268.69
2023-09-06T17:33:02.655Z,100273.91
2023-09-06T17:34:35.046Z,100278.09
2023-09-06T17:36:09.386Z,100279.31
2023-09-06T17:37:42.043Z,100275.38
2023-09-06T17:39:14.376Z,100275.69
2023-09-06T17:40:48.826Z,100276.72
2023-09-06T17:42:22.734Z,100278.72
2023-09-06T17:43:55.110Z,100287.06
2023-09-06T17:45:28.959Z,100286.41
2023-09-06T17:47:03.308Z,100291.03
2023-09-06T17:48:36.212Z,100292.06
2023-09-06T17:50:11.056Z,100295.84
2023-09-06T17:51:46.203Z,100297.84
2023-09-06T17:53:21.776Z,100296.91
2023-09-06T17:54:54.078Z,100299.84
2023-09-06T17:56:27.881Z,100303.50
2023-09-06T17:58:07.707Z,100302.97
2023-09-06T17:59:40.190Z,100307.28
2023-09-06T18:01:14.691Z,100308.25
2023-09-06T18:02:49.671Z,100314.56
2023-09-06T18:04:26.243Z,100320.03
2023-09-06T18:05:59.197Z,100317.69
2023-09-06T18:07:31.517Z,100325.69
2023-09-06T18:09:09.179Z,100318.91
2023-09-06T18:10:41.392Z,100326.06
2023-09-06T18:12:14.101Z,100324.75
2023-09-06T18:13:46.271Z,100318.78
2023-09-06T18:15:18.737Z,100318.25
2023-09-06T18:16:51.084Z,100326.16
2023-09-06T18:18:24.832Z,100318.41
2023-09-06T18:19:57.123Z,100324.66
2023-09-06T18:21:30.431Z,100321.25
2023-09-06T18:23:02.666Z,100315.31
2023-09-06T18:24:34.848Z,100314.56
2023-09-06T18:26:09.502Z,100322.56
2023-09-06T18:27:42.052Z,100320.13
2023-09-06T18:30:22.449Z,100324.34
2023-09-06T18:31:56.683Z,100323.28
2023-09-06T18:33:29.509Z,100321.97
2023-09-06T18:35:01.695Z,100322.91
2023-09-06T18:36:54.666Z,100333.38
2023-09-06T18:38:28.710Z,100320.75
2023-09-06T18:40:10.599Z,100325.16
2023-09-06T18:41:43.641Z,100322.16
2023-09-06T18:43:18.757Z,100324.03
2023-09-06T18:44:51.086Z,100326.06
2023-09-06T18:46:24.000Z,100320.13
2023-09-06T18:47:57.499Z,100315.03
2023-09-06T18:49:29.783Z,100316.91
2023-09-06T18:51:05.419Z,100315.03
2023-09-06T18:52:38.899Z,100315.31
2023-09-06T18:54:11.137Z,100311.13
2023-09-06T18:55:48.121Z,100315.63
2023-09-06T18:57:20.760Z,100310.63
2023-09-06T18:58:53.056Z,100309.00
2023-09-06T19:00:25.498Z,100315.22
2023-09-06T19:01:58.244Z,100317.09
2023-09-06T19:03:30.636Z,100316.50
2023-09-06T19:05:05.892Z,100324.31
2023-09-06T19:06:38.223Z,100323.84
2023-09-06T19:08:16.848Z,100317.72
2023-09-06T19:09:49.440Z,100318.91
2023-09-06T19:11:26.176Z,100315.53
2023-09-06T19:12:58.552Z,100320.72
2023-09-06T19:14:31.075Z,100323.44
2023-09-06T19:16:36.027Z,100327.75
2023-09-06T19:18:08.292Z,100324.81
2023-09-06T19:19:40.552Z,100330.16
2023-09-06T19:21:12.737Z,100330.41
2023-09-06T19:22:45.055Z,100324.38
2023-09-06T19:24:17.295Z,100324.31
2023-09-06T19:25:56.558Z,100330.22
2023-09-06T19:27:29.591Z,100321.91
2023-09-06T19:29:01.905Z,100336.78
2023-09-06T19:30:34.207Z,100335.94
2023-09-06T19:33:52.624Z,100338.59
2023-09-06T19:35:25.904Z,100328.97
2023-09-06T19:36:58.123Z,100326.94
2023-09-06T19:38:30.642Z,100343.75
2023-09-06T19:40:04.939Z,100342.13
2023-09-06T19:41:37.166Z,100340.47
2023-09-06T19:43:09.315Z,100342.31
2023-09-06T19:44:41.829Z,100339.59
2023-09-06T19:46:14.189Z,100338.94
2023-09-06T19:47:48.176Z,100336.28
2023-09-06T19:49:20.408Z,100345.88
2023-09-06T19:50:53.179Z,100343.25
2023-09-06T19:53:59.352Z,100346.81
2023-09-06T19:55:31.544Z,100347.75
2023-09-06T19:57:07.469Z,100358.28
2023-09-06T19:58:39.641Z,100346.22
2023-09-06T20:00:12.768Z,100352.50
2023-09-06T20:01:48.772Z,100359.47
2023-09-06T20:03:21.548Z,100351.75
2023-09-06T20:04:54.006Z,100360.50
2023-09-06T20:06:26.245Z,100350.13
2023-09-06T20:07:58.438Z,100350.28
2023-09-06T20:09:32.066Z,100348.41
2023-09-06T20:11:06.337Z,100350.22
2023-09-06T20:12:38.833Z,100348.53
2023-09-06T20:14:12.238Z,100344.94
2023-09-06T20:15:45.099Z,100351.25
2023-09-06T20:17:17.298Z,100345.03
2023-09-06T20:18:49.677Z,100342.66
2023-09-06T20:20:22.372Z,100353.69
2023-09-06T20:21:54.635Z,100349.25
2023-09-06T20:23:28.543Z,100352.78